createdAt,value
2023-08-10T00:00:17.398Z,3.00
2023-08-10T00:02:26.499Z,2.25
2023-08-10T00:04:38.206Z,2.30
2023-08-10T00:06:47.854Z,2.30
2023-08-10T00:08:58.120Z,2.20
2023-08-10T00:11:10.018Z,2.60
2023-08-10T00:13:25.613Z,2.75
2023-08-10T00:15:34.412Z,2.15
2023-08-10T00:17:45.520Z,2.50
2023-08-10T00:19:54.038Z,2.53
2023-08-10T00:22:03.888Z,2.15
2023-08-10T00:24:14.689Z,2.50
2023-08-10T00:26:26.187Z,2.13
2023-08-10T00:28:35.509Z,2.33
2023-08-10T00:30:46.348Z,2.42
2023-08-10T00:32:54.983Z,2.50
2023-08-10T00:35:03.960Z,2.70
2023-08-10T00:37:15.325Z,2.42
2023-08-10T00:39:24.057Z,2.53
2023-08-10T00:41:35.008Z,2.50
2023-08-10T00:43:43.814Z,2.78
2023-08-10T00:45:53.548Z,2.92
2023-08-10T00:48:02.842Z,2.58
2023-08-10T00:50:13.124Z,2.50
2023-08-10T00:52:21.436Z,2.40
2023-08-10T00:54:29.725Z,2.50
2023-08-10T00:56:40.642Z,2.22
2023-08-10T00:58:49.747Z,2.50
2023-08-10T01:00:55.637Z,2.90
2023-08-10T01:03:03.988Z,2.50
2023-08-10T01:05:16.021Z,2.47
2023-08-10T01:07:36.806Z,2.88
2023-08-10T01:09:58.896Z,2.70
2023-08-10T01:12:25.342Z,3.13
2023-08-10T01:14:40.007Z,2.25
2023-08-10T01:16:49.450Z,3.08
2023-08-10T01:19:00.300Z,2.72
2023-08-10T01:21:27.546Z,3.10
2023-08-10T01:23:41.980Z,2.97
2023-08-10T01:25:56.183Z,3.10
2023-08-10T01:28:05.207Z,2.63
2023-08-10T01:30:18.296Z,2.80
2023-08-10T01:32:26.763Z,3.03
2023-08-10T01:34:35.793Z,3.40
2023-08-10T01:36:44.696Z,2.97
2023-08-10T01:38:52.962Z,2.45
2023-08-10T01:41:03.937Z,3.33
2023-08-10T01:43:12.140Z,3.08
2023-08-10T01:45:20.738Z,2.70
2023-08-10T01:47:32.187Z,2.78
2023-08-10T01:49:42.501Z,2.78
2023-08-10T01:51:51.349Z,2.50
2023-08-10T01:54:04.964Z,2.92
2023-08-10T01:56:16.399Z,3.38
2023-08-10T01:58:26.363Z,2.85
2023-08-10T02:00:38.772Z,2.65
2023-08-10T02:02:48.231Z,3.92
2023-08-10T02:04:56.770Z,2.80
2023-08-10T02:07:05.809Z,3.55
2023-08-10T02:09:16.504Z,3.05
2023-08-10T02:11:27.541Z,2.90
2023-08-10T02:13:37.381Z,3.33
2023-08-10T02:15:45.979Z,3.10
2023-08-10T02:17:52.329Z,3.38
2023-08-10T02:20:02.394Z,3.30
2023-08-10T02:22:12.767Z,3.20
2023-08-10T02:24:21.549Z,3.55
2023-08-10T02:26:34.976Z,3.80
2023-08-10T02:28:51.368Z,3.05
2023-08-10T02:31:03.546Z,2.35
2023-08-10T02:33:14.105Z,2.90
2023-08-10T02:35:24.461Z,2.80
2023-08-10T02:37:35.538Z,3.85
2023-08-10T02:39:44.131Z,3.50
2023-08-10T02:41:55.054Z,3.17
2023-08-10T02:44:03.440Z,3.35
2023-08-10T02:46:12.706Z,3.05
2023-08-10T02:48:22.379Z,3.13
2023-08-10T02:50:30.540Z,2.97
2023-08-10T02:52:39.258Z,4.43
2023-08-10T02:54:47.937Z,6.03
2023-08-10T02:56:58.954Z,5.80
2023-08-10T02:59:05.665Z,5.82
2023-08-10T03:01:18.004Z,5.15
2023-08-10T03:03:29.543Z,4.75
2023-08-10T03:05:38.142Z,4.05
2023-08-10T03:07:46.699Z,5.50
2023-08-10T03:09:55.962Z,4.40
2023-08-10T03:12:11.136Z,4.35
2023-08-10T03:14:19.635Z,4.80
2023-08-10T03:16:28.270Z,5.15
2023-08-10T03:18:36.934Z,3.83
2023-08-10T03:20:45.264Z,4.03
2023-08-10T03:22:53.469Z,4.40
2023-08-10T03:25:05.810Z,3.88
2023-08-10T03:27:18.834Z,4.30
2023-08-10T03:29:28.616Z,3.85
2023-08-10T03:31:37.905Z,4.43
2023-08-10T03:33:50.604Z,3.90
2023-08-10T03:36:01.667Z,4.28
2023-08-10T03:38:10.879Z,4.35
2023-08-10T03:40:20.577Z,4.43
2023-08-10T03:42:32.439Z,4.40
2023-08-10T03:44:40.618Z,4.72
2023-08-10T03:46:49.708Z,4.85
2023-08-10T03:48:58.136Z,5.05
2023-08-10T03:51:07.346Z,4.68
2023-08-10T03:53:17.278Z,6.43
2023-08-10T03:55:27.157Z,5.97
2023-08-10T03:57:38.906Z,6.30
2023-08-10T03:59:50.508Z,5.15
2023-08-10T04:02:00.191Z,5.53
2023-08-10T04:04:09.797Z,6.78
2023-08-10T04:06:18.325Z,6.07
2023-08-10T04:08:26.559Z,5.53
2023-08-10T04:10:35.689Z,4.97
2023-08-10T04:12:46.403Z,6.05
2023-08-10T04:14:54.528Z,5.60
2023-08-10T04:17:03.157Z,5.72
2023-08-10T04:19:11.586Z,5.78
2023-08-10T04:21:20.411Z,5.93
2023-08-10T04:23:29.301Z,6.07
2023-08-10T04:25:38.418Z,5.55
2023-08-10T04:27:51.133Z,6.32
2023-08-10T04:29:59.481Z,4.55
2023-08-10T04:32:09.200Z,5.07
2023-08-10T04:34:17.484Z,5.32
2023-08-10T04:36:28.263Z,5.30
2023-08-10T04:38:36.433Z,7.05
2023-08-10T04:40:45.258Z,5.05
2023-08-10T04:42:56.082Z,5.55
2023-08-10T04:45:06.207Z,5.47
2023-08-10T04:47:15.995Z,5.97
2023-08-10T04:49:25.305Z,5.32
2023-08-10T04:51:34.176Z,6.00
2023-08-10T04:53:43.108Z,6.10
2023-08-10T04:55:51.354Z,6.10
2023-08-10T04:58:02.469Z,5.65
2023-08-10T05:00:11.377Z,4.80
2023-08-10T05:02:19.912Z,5.75
2023-08-10T05:04:28.057Z,4.45
2023-08-10T05:06:36.285Z,5.22
2023-08-10T05:08:44.793Z,4.80
2023-08-10T05:10:53.330Z,6.20
2023-08-10T05:13:05.526Z,5.85
2023-08-10T05:15:15.864Z,8.10
2023-08-10T05:17:24.316Z,7.30
2023-08-10T05:19:32.493Z,6.53
2023-08-10T05:21:41.052Z,4.20
2023-08-10T05:23:49.617Z,3.60
2023-08-10T05:25:58.243Z,3.60
2023-08-10T05:28:09.694Z,3.85
2023-08-10T05:30:17.992Z,3.22
2023-08-10T05:32:26.319Z,3.35
2023-08-10T05:34:34.674Z,3.10
2023-08-10T05:36:43.127Z,3.50
2023-08-10T05:38:52.132Z,2.40
2023-08-10T05:41:00.390Z,3.10
2023-08-10T05:43:13.470Z,2.67
2023-08-10T05:45:23.407Z,2.60
2023-08-10T05:47:31.895Z,2.20
2023-08-10T05:49:40.154Z,2.60
2023-08-10T05:51:50.688Z,2.20
2023-08-10T05:53:58.789Z,2.30
2023-08-10T05:56:07.176Z,2.47
2023-08-10T05:58:17.972Z,2.40
2023-08-10T06:00:26.409Z,2.23
2023-08-10T06:02:34.731Z,2.57
2023-08-10T06:04:46.380Z,2.63
2023-08-10T06:06:54.480Z,2.30
2023-08-10T06:09:02.612Z,2.27
2023-08-10T06:11:12.590Z,2.63
2023-08-10T06:13:23.487Z,2.27
2023-08-10T06:15:31.820Z,2.80
2023-08-10T06:17:40.013Z,2.87
2023-08-10T06:19:57.354Z,2.03
2023-08-10T06:22:07.833Z,2.53
2023-08-10T06:24:17.608Z,2.50
2023-08-10T06:26:25.911Z,2.40
2023-08-10T06:28:37.435Z,2.53
2023-08-10T06:30:45.657Z,2.75
2023-08-10T06:32:54.322Z,2.88
2023-08-10T06:35:03.405Z,2.72
2023-08-10T06:37:11.586Z,2.53
2023-08-10T06:39:20.217Z,2.42
2023-08-10T06:41:28.468Z,2.88
2023-08-10T06:43:39.172Z,2.95
2023-08-10T06:45:47.542Z,3.00
2023-08-10T06:47:56.158Z,2.65
2023-08-10T06:50:04.524Z,3.03
2023-08-10T06:52:13.121Z,3.30
2023-08-10T06:54:21.443Z,3.35
2023-08-10T06:56:29.551Z,2.90
2023-08-10T07:00:52.547Z,2.85
2023-08-10T07:03:01.228Z,3.60
2023-08-10T07:05:11.864Z,3.03
2023-08-10T07:07:20.211Z,3.55
2023-08-10T07:09:28.402Z,2.72
2023-08-10T07:11:37.756Z,3.15
2023-08-10T07:13:48.704Z,3.13
2023-08-10T07:15:58.643Z,2.92
2023-08-10T07:18:07.123Z,2.80
2023-08-10T07:20:15.485Z,3.10
2023-08-10T07:22:23.823Z,3.60
2023-08-10T07:24:30.870Z,2.90
2023-08-10T07:26:38.987Z,3.55
2023-08-10T07:28:49.864Z,3.20
2023-08-10T07:30:58.871Z,2.90
2023-08-10T07:33:07.958Z,3.03
2023-08-10T07:35:13.791Z,3.08
2023-08-10T07:37:22.345Z,3.53
2023-08-10T07:39:30.530Z,2.50
2023-08-10T07:41:38.575Z,2.90
2023-08-10T07:43:49.186Z,3.28
2023-08-10T07:45:57.500Z,3.25
2023-08-10T07:48:05.715Z,2.80
2023-08-10T07:50:15.570Z,3.08
2023-08-10T07:52:23.974Z,2.85
2023-08-10T07:54:31.963Z,3.30
2023-08-10T07:56:40.463Z,2.95
2023-08-10T07:58:51.868Z,2.95
2023-08-10T08:01:00.218Z,2.65
2023-08-10T08:03:10.048Z,2.80
2023-08-10T08:05:18.437Z,2.92
2023-08-10T08:07:27.212Z,3.30
2023-08-10T08:09:50.343Z,3.05
2023-08-10T08:11:58.949Z,2.80
2023-08-10T08:14:10.117Z,3.00
2023-08-10T08:16:19.862Z,2.75
2023-08-10T08:18:46.886Z,2.63
2023-08-10T08:20:55.098Z,2.50
2023-08-10T08:23:03.255Z,2.70
2023-08-10T08:25:13.304Z,3.05
2023-08-10T08:27:21.692Z,2.10
2023-08-10T08:29:32.462Z,2.22
2023-08-10T08:31:40.716Z,2.40
2023-08-10T08:33:49.247Z,2.85
2023-08-10T08:35:59.943Z,2.45
2023-08-10T08:38:08.326Z,2.63
2023-08-10T08:40:17.104Z,2.10
2023-08-10T08:42:25.738Z,2.30
2023-08-10T08:44:36.520Z,2.17
2023-08-10T08:46:48.342Z,2.23
2023-08-10T08:48:57.025Z,2.13
2023-08-10T08:51:05.882Z,2.20
2023-08-10T08:53:13.587Z,2.00
2023-08-10T08:55:21.960Z,2.00
2023-08-10T08:57:30.243Z,1.80
2023-08-10T08:59:41.288Z,1.90
2023-08-10T09:01:54.554Z,1.77
2023-08-10T09:04:03.864Z,2.17
2023-08-10T09:06:12.418Z,1.98
2023-08-10T09:08:22.363Z,2.20
2023-08-10T09:10:31.102Z,2.00
2023-08-10T09:12:41.193Z,2.30
2023-08-10T09:15:05.315Z,2.30
2023-08-10T09:17:13.642Z,2.10
2023-08-10T09:19:22.037Z,1.85
2023-08-10T09:21:35.638Z,2.42
2023-08-10T09:23:45.177Z,2.38
2023-08-10T09:25:53.410Z,2.55
2023-08-10T09:28:01.480Z,2.55
2023-08-10T09:30:13.816Z,2.60
2023-08-10T09:32:23.247Z,2.30
2023-08-10T09:34:31.624Z,2.57
2023-08-10T09:36:39.837Z,2.27
2023-08-10T09:38:55.347Z,2.10
2023-08-10T09:41:14.391Z,2.50
2023-08-10T09:43:23.834Z,2.50
2023-08-10T09:45:36.328Z,2.73
2023-08-10T09:47:46.068Z,2.50
2023-08-10T09:50:02.366Z,2.17
2023-08-10T09:52:11.776Z,2.33
2023-08-10T09:54:20.873Z,2.50
2023-08-10T09:56:29.124Z,2.07
2023-08-10T09:58:38.247Z,2.57
2023-08-10T10:00:50.594Z,2.23
2023-08-10T10:02:58.778Z,2.20
2023-08-10T10:05:14.238Z,2.20
2023-08-10T10:07:27.959Z,2.17
2023-08-10T10:09:39.098Z,1.90
2023-08-10T10:11:48.230Z,2.30
2023-08-10T10:13:57.106Z,2.07
2023-08-10T10:16:10.632Z,2.03
2023-08-10T10:18:19.288Z,2.70
2023-08-10T10:20:28.065Z,2.23
2023-08-10T10:22:37.236Z,2.00
2023-08-10T10:24:46.161Z,2.30
2023-08-10T10:27:09.098Z,2.37
2023-08-10T10:29:18.752Z,2.20
2023-08-10T10:31:29.492Z,2.20
2023-08-10T10:33:40.025Z,2.37
2023-08-10T10:36:24.250Z,2.40
2023-08-10T10:38:36.172Z,2.43
2023-08-10T10:40:46.479Z,2.57
2023-08-10T10:43:12.874Z,2.70
2023-08-10T10:45:27.864Z,2.97
2023-08-10T10:47:41.897Z,2.60
2023-08-10T10:49:59.358Z,2.67
2023-08-10T10:52:09.252Z,2.20
2023-08-10T10:54:20.317Z,2.50
2023-08-10T10:56:32.167Z,2.40
2023-08-10T10:58:40.293Z,2.17
2023-08-10T11:00:50.006Z,2.30
2023-08-10T11:03:00.085Z,2.03
2023-08-10T11:05:14.907Z,2.10
2023-08-10T11:07:22.752Z,2.20
2023-08-10T11:09:33.300Z,1.90
2023-08-10T11:11:41.433Z,2.00
2023-08-10T11:13:49.768Z,2.13
2023-08-10T11:15:58.228Z,2.50
2023-08-10T11:18:13.453Z,2.20
2023-08-10T11:20:22.363Z,1.90
2023-08-10T11:22:30.439Z,2.33
2023-08-10T11:24:41.188Z,2.10
2023-08-10T11:26:49.331Z,2.23
2023-08-10T11:28:57.356Z,2.10
2023-08-10T11:31:05.879Z,2.30
2023-08-10T11:33:14.122Z,2.63
2023-08-10T11:35:24.335Z,1.80
2023-08-10T11:37:33.411Z,2.00
2023-08-10T11:39:44.144Z,2.13
2023-08-10T11:41:52.516Z,2.40
2023-08-10T11:44:01.928Z,2.10
2023-08-10T11:46:11.227Z,2.30
2023-08-10T11:48:24.475Z,2.00
2023-08-10T11:50:33.536Z,2.17
2023-08-10T11:52:42.729Z,2.37
2023-08-10T11:54:57.018Z,1.90
2023-08-10T11:57:13.066Z,2.03
2023-08-10T11:59:21.287Z,2.00
2023-08-10T12:01:29.393Z,2.10
2023-08-10T12:03:37.531Z,2.00
2023-08-10T12:05:49.043Z,1.90
2023-08-10T12:08:02.266Z,2.20
2023-08-10T12:10:15.242Z,2.50
2023-08-10T12:12:23.365Z,2.30
2023-08-10T12:14:28.829Z,2.30
2023-08-10T12:16:36.793Z,2.07
2023-08-10T12:18:45.105Z,2.33
2023-08-10T12:20:54.686Z,2.00
2023-08-10T12:23:03.311Z,2.80
2023-08-10T12:25:14.972Z,2.30
2023-08-10T12:27:23.170Z,2.33
2023-08-10T12:29:31.134Z,2.40
2023-08-10T12:31:39.069Z,2.50
2023-08-10T12:33:47.175Z,2.40
2023-08-10T12:35:55.248Z,2.53
2023-08-10T12:38:04.073Z,2.80
2023-08-10T12:40:17.560Z,2.17
2023-08-10T12:42:26.044Z,2.50
2023-08-10T12:44:34.757Z,2.20
2023-08-10T12:46:43.660Z,2.30
2023-08-10T12:48:53.360Z,2.57
2023-08-10T12:51:02.022Z,2.50
2023-08-10T12:53:10.845Z,2.53
2023-08-10T12:55:22.175Z,2.20
2023-08-10T12:57:30.500Z,2.20
2023-08-10T12:59:36.051Z,2.20
2023-08-10T13:01:45.197Z,2.30
2023-08-10T13:03:53.377Z,2.30
2023-08-10T13:06:01.387Z,2.23
2023-08-10T13:08:09.738Z,2.30
2023-08-10T13:10:19.952Z,2.47
2023-08-10T13:12:32.043Z,2.57
2023-08-10T13:14:40.610Z,2.43
2023-08-10T13:16:48.764Z,2.70
2023-08-10T13:18:58.270Z,2.10
2023-08-10T13:21:06.388Z,2.40
2023-08-10T13:23:14.554Z,2.53
2023-08-10T13:25:22.578Z,2.40
2023-08-10T13:27:33.298Z,2.60
2023-08-10T13:29:41.243Z,2.37
2023-08-10T13:31:49.368Z,2.40
2023-08-10T13:33:57.673Z,2.00
2023-08-10T13:36:05.842Z,1.80
2023-08-10T13:38:13.904Z,2.50
2023-08-10T13:40:22.377Z,2.83
2023-08-10T13:42:34.561Z,2.50
2023-08-10T13:44:42.251Z,2.07
2023-08-10T13:46:50.328Z,2.67
2023-08-10T13:48:56.398Z,2.63
2023-08-10T13:51:04.546Z,2.80
2023-08-10T13:53:12.499Z,2.93
2023-08-10T13:55:20.668Z,2.63
2023-08-10T13:57:29.214Z,2.30
2023-08-10T13:59:40.276Z,2.70
2023-08-10T14:01:48.413Z,2.20
2023-08-10T14:03:56.592Z,2.73
2023-08-10T14:06:06.071Z,2.57
2023-08-10T14:08:14.479Z,2.50
2023-08-10T14:10:22.881Z,3.13
2023-08-10T14:12:34.130Z,2.70
2023-08-10T14:14:44.836Z,2.90
2023-08-10T14:16:54.491Z,3.07
2023-08-10T14:19:02.584Z,2.40
2023-08-10T14:21:10.783Z,2.90
2023-08-10T14:23:18.853Z,2.90
2023-08-10T14:25:27.083Z,2.33
2023-08-10T14:27:35.388Z,2.37
2023-08-10T14:29:46.123Z,2.70
2023-08-10T14:31:54.214Z,2.43
2023-08-10T14:34:02.163Z,3.43
2023-08-10T14:36:11.793Z,2.90
2023-08-10T14:38:23.445Z,2.47
2023-08-10T14:40:39.918Z,3.07
2023-08-10T14:42:48.304Z,2.67
2023-08-10T14:44:59.984Z,3.13
2023-08-10T14:47:09.362Z,3.03
2023-08-10T14:49:17.680Z,2.97
2023-08-10T14:51:25.809Z,3.00
2023-08-10T14:53:34.319Z,2.80
2023-08-10T14:55:39.871Z,3.23
2023-08-10T14:57:48.436Z,2.53
2023-08-10T14:59:59.520Z,2.57
2023-08-10T15:02:08.722Z,2.60
2023-08-10T15:04:17.215Z,2.73
2023-08-10T15:06:25.711Z,2.50
2023-08-10T15:08:34.121Z,2.60
2023-08-10T15:10:42.291Z,2.07
2023-08-10T15:12:51.341Z,2.60
2023-08-10T15:15:02.140Z,2.37
2023-08-10T15:17:10.756Z,3.00
2023-08-10T15:19:18.878Z,2.83
2023-08-10T15:21:27.105Z,2.77
2023-08-10T15:23:42.459Z,2.63
2023-08-10T15:25:51.452Z,3.03
2023-08-10T15:27:59.758Z,3.00
2023-08-10T15:30:13.001Z,2.60
2023-08-10T15:32:21.289Z,2.60
2023-08-10T15:34:29.388Z,2.63
2023-08-10T15:36:37.775Z,2.30
2023-08-10T15:38:45.962Z,2.57
2023-08-10T15:40:56.733Z,2.93
2023-08-10T15:43:05.197Z,2.90
2023-08-10T15:45:16.729Z,2.40
2023-08-10T15:47:25.674Z,3.27
2023-08-10T15:49:33.890Z,2.80
2023-08-10T15:51:42.457Z,2.90
2023-08-10T15:53:50.840Z,2.20
2023-08-10T15:55:59.008Z,2.43
2023-08-10T15:58:07.813Z,3.00
2023-08-10T16:00:20.740Z,2.60
2023-08-10T16:02:29.490Z,2.30
2023-08-10T16:04:37.967Z,2.57
2023-08-10T16:06:46.387Z,2.70
2023-08-10T16:08:54.732Z,2.50
2023-08-10T16:11:04.238Z,2.43
2023-08-10T16:13:12.359Z,2.07
2023-08-10T16:15:24.321Z,2.43
2023-08-10T16:17:32.665Z,2.53
2023-08-10T16:19:41.028Z,2.50
2023-08-10T16:21:49.447Z,2.57
2023-08-10T16:23:57.710Z,2.70
2023-08-10T16:26:05.707Z,2.63
2023-08-10T16:28:13.765Z,2.30
2023-08-10T16:30:24.521Z,2.93
2023-08-10T16:32:32.541Z,2.90
2023-08-10T16:34:40.922Z,2.03
2023-08-10T16:36:49.053Z,2.20
2023-08-10T16:38:57.047Z,2.27
2023-08-10T16:41:05.025Z,2.73
2023-08-10T16:43:13.144Z,2.50
2023-08-10T16:45:21.264Z,2.40
2023-08-10T16:47:33.108Z,2.23
2023-08-10T16:49:41.049Z,2.37
2023-08-10T16:51:49.092Z,2.60
2023-08-10T16:53:57.252Z,2.23
2023-08-10T16:56:05.347Z,3.03
2023-08-10T16:58:13.780Z,2.53
2023-08-10T17:00:22.802Z,2.67
2023-08-10T17:02:34.123Z,2.60
2023-08-10T17:04:42.895Z,2.60
2023-08-10T17:06:50.898Z,2.37
2023-08-10T17:08:59.128Z,2.50
2023-08-10T17:11:07.558Z,1.83
2023-08-10T17:13:16.541Z,2.30
2023-08-10T17:15:24.664Z,2.57
2023-08-10T17:17:35.498Z,2.60
2023-08-10T17:19:43.534Z,2.20
2023-08-10T17:21:51.839Z,2.57
2023-08-10T17:23:59.899Z,2.53
2023-08-10T17:26:07.952Z,2.90
2023-08-10T17:28:16.092Z,1.83
2023-08-10T17:30:24.351Z,2.23
2023-08-10T17:32:32.731Z,1.97
2023-08-10T17:34:41.178Z,2.37
2023-08-10T17:36:50.049Z,2.27
2023-08-10T17:38:58.943Z,2.00
2023-08-10T17:41:07.870Z,2.97
2023-08-10T17:43:16.984Z,2.30
2023-08-10T17:45:25.974Z,2.00
2023-08-10T17:47:38.855Z,2.13
2023-08-10T17:49:46.885Z,2.60
2023-08-10T17:51:54.996Z,1.97
2023-08-10T17:54:02.997Z,2.20
2023-08-10T17:56:10.407Z,2.73
2023-08-10T17:58:18.791Z,1.97
2023-08-10T18:00:27.813Z,2.20
2023-08-10T18:02:38.829Z,2.07
2023-08-10T18:04:47.300Z,2.10
2023-08-10T18:06:55.464Z,2.20
2023-08-10T18:09:03.486Z,2.10
2023-08-10T18:11:12.156Z,2.20
2023-08-10T18:13:20.405Z,2.20
2023-08-10T18:15:28.383Z,1.80
2023-08-10T18:17:40.100Z,2.20
2023-08-10T18:19:48.552Z,1.80
2023-08-10T18:21:57.334Z,2.10
2023-08-10T18:24:06.072Z,2.20
2023-08-10T18:26:14.447Z,1.83
2023-08-10T18:28:22.564Z,1.77
2023-08-10T18:30:31.357Z,2.28
2023-08-10T18:32:42.257Z,2.30
2023-08-10T18:34:50.547Z,2.92
2023-08-10T18:36:59.422Z,2.55
2023-08-10T18:39:08.284Z,1.85
2023-08-10T18:41:16.434Z,2.00
2023-08-10T18:43:24.811Z,2.60
2023-08-10T18:45:33.041Z,2.55
2023-08-10T18:47:46.777Z,2.60
2023-08-10T18:49:55.379Z,2.33
2023-08-10T18:52:03.695Z,2.88
2023-08-10T18:54:12.864Z,2.55
2023-08-10T18:56:21.836Z,1.85
2023-08-10T18:58:29.939Z,2.70
2023-08-10T19:00:38.221Z,2.45
2023-08-10T19:02:49.274Z,1.92
2023-08-10T19:04:57.532Z,1.88
2023-08-10T19:07:05.958Z,1.90
2023-08-10T19:09:14.242Z,2.35
2023-08-10T19:11:24.567Z,2.42
2023-08-10T19:13:33.081Z,2.40
2023-08-10T19:15:42.932Z,2.05
2023-08-10T19:17:53.960Z,2.28
2023-08-10T19:20:02.478Z,2.17
2023-08-10T19:22:11.693Z,2.00
2023-08-10T19:24:20.836Z,2.28
2023-08-10T19:26:29.090Z,1.92
2023-08-10T19:28:39.098Z,2.22
2023-08-10T19:30:47.249Z,2.35
2023-08-10T19:32:58.045Z,1.88
2023-08-10T19:35:07.287Z,2.22
2023-08-10T19:37:15.689Z,2.42
2023-08-10T19:39:23.797Z,2.63
2023-08-10T19:41:32.564Z,2.30
2023-08-10T19:43:40.666Z,2.45
2023-08-10T19:45:48.982Z,2.05
2023-08-10T19:48:02.541Z,2.28
2023-08-10T20:06:48.129Z,3.13
2023-08-10T20:16:56.358Z,4.22
2023-08-10T20:19:22.902Z,2.97
2023-08-10T20:39:33.003Z,3.03
2023-08-10T20:45:34.181Z,2.60
2023-08-10T21:01:24.361Z,3.55
2023-08-10T21:04:01.062Z,3.05
2023-08-10T21:18:46.105Z,4.03
2023-08-10T21:24:37.482Z,4.40
2023-08-10T21:27:47.404Z,3.45
2023-08-10T21:30:55.778Z,3.45
2023-08-10T21:37:35.745Z,3.40
2023-08-10T21:55:52.867Z,3.35
2023-08-10T22:08:16.571Z,3.55
2023-08-10T22:14:40.486Z,3.35
2023-08-10T22:33:17.452Z,3.00
2023-08-10T22:36:05.650Z,2.83
2023-08-10T22:45:14.805Z,3.92
2023-08-10T22:53:41.606Z,3.05
2023-08-10T22:56:15.886Z,4.03
2023-08-10T23:04:53.054Z,3.33
2023-08-10T23:10:55.586Z,3.42
2023-08-10T23:13:48.682Z,3.95
2023-08-10T23:16:41.208Z,4.05
2023-08-10T23:19:12.863Z,3.78
2023-08-10T23:22:14.610Z,3.80
2023-08-10T23:25:21.378Z,3.60
2023-08-10T23:28:00.769Z,4.10
2023-08-10T23:30:54.595Z,3.63
2023-08-10T23:33:58.360Z,4.07
2023-08-10T23:37:42.118Z,3.90
2023-08-10T23:43:32.549Z,4.38
2023-08-10T23:49:43.859Z,4.05
